Garelochhead, United Kingdom
Current Conditions -  °F | °C
As of 11:20 PM on Saturday 25 Oct 2014 (Local Time) from EGPF Reporting Station
Broken Clouds Broken Clouds  
Wind Chill: 52°   Ceiling: 1700
Heat Index: 52°   Visibility: 6mi
Dew Point: 46°   Wind: 23mph
Humidity: 82%   Direction: 230°SW
Pressure: 29.71"   Gusts: NA
Location:  56.08°N, 4.83°W
Report Text: EGPF 252220Z AUTO 23020KT 9999 BKN017 11/08 Q1006
Loading
Personal Weather Stations






























Interactive Weather Map
Tropical Storm Tracking
New forecast layout! Learn more

10-Day Weather Forecast

Advertisements
Track Severe Weather on mobile